Time;durP1;ratioP1;P1;durP2;ratioP2;P2;SDS_P1;SDS_P2;PMS_P1;PMS_P2;Temp;Humidity;BMP_temperature;BMP_pressure;BME280_temperature;BME280_humidity;BME280_pressure;Samples;Min_cycle;Max_cycle;Signal;HPM_P1;HPM_P2
2023/05/29 00:01:10;;;;;;;23.30;10.05;;;;;;;14.83;100.00;94316.47;5056919;28;20034;-81
2023/05/29 00:03:35;;;;;;;17.23;10.20;;;;;;;14.56;100.00;94320.66;5039195;28;20024;-82
2023/05/29 00:06:22;;;;;;;18.13;10.65;;;;;;;14.50;100.00;94325.25;5038695;28;20029;-82
2023/05/29 00:08:48;;;;;;;20.30;9.95;;;;;;;14.46;100.00;94331.41;5056940;28;20051;-81
2023/05/29 00:11:13;;;;;;;22.65;9.65;;;;;;;14.57;100.00;94322.22;5022911;28;20029;-82
2023/05/29 00:16:23;;;;;;;19.25;10.07;;;;;;;14.46;100.00;94326.91;5041309;28;20052;-81
2023/05/29 00:19:08;;;;;;;18.45;10.48;;;;;;;14.17;100.00;94324.53;5038804;28;20028;-82
2023/05/29 00:21:34;;;;;;;18.75;10.70;;;;;;;13.82;100.00;94330.13;5038850;28;20032;-82
2023/05/29 00:23:59;;;;;;;20.02;9.95;;;;;;;14.03;100.00;94327.94;5039024;28;20028;-82
2023/05/29 00:26:43;;;;;;;17.95;9.60;;;;;;;14.05;100.00;94325.00;5038564;28;20025;-81
2023/05/29 00:29:27;;;;;;;19.65;9.98;;;;;;;14.07;100.00;94326.28;5038681;28;20027;-82
2023/05/29 00:31:53;;;;;;;20.23;11.00;;;;;;;13.85;100.00;94329.53;5041331;28;20021;-82
2023/05/29 00:34:38;;;;;;;24.08;11.40;;;;;;;13.86;100.00;94331.09;5025051;28;20020;-81
2023/05/29 00:37:22;;;;;;;24.75;11.10;;;;;;;14.27;100.00;94335.69;5058508;28;20082;-82
2023/05/29 00:39:48;;;;;;;23.02;10.73;;;;;;;14.23;100.00;94339.97;5041175;28;20035;-82
2023/05/29 00:42:13;;;;;;;26.88;11.40;;;;;;;13.99;100.00;94342.75;5041103;28;20029;-82
2023/05/29 00:44:39;;;;;;;17.73;10.25;;;;;;;14.21;100.00;94339.50;5041441;28;20096;-82
2023/05/29 00:49:51;;;;;;;17.08;9.95;;;;;;;14.11;100.00;94332.50;5043914;28;20511;-82
2023/05/29 00:52:17;;;;;;;18.65;9.27;;;;;;;14.31;100.00;94335.09;5042806;28;20079;-81
2023/05/29 00:54:43;;;;;;;16.67;9.93;;;;;;;14.18;100.00;94339.28;5041413;28;20024;-82
2023/05/29 00:57:09;;;;;;;18.10;10.20;;;;;;;13.87;100.00;94335.28;5038165;28;20469;-81
2023/05/29 01:02:20;;;;;;;17.42;9.95;;;;;;;14.16;100.00;94338.78;5040929;28;20489;-81
2023/05/29 01:04:45;;;;;;;18.13;10.50;;;;;;;13.95;100.00;94339.91;5038063;28;20033;-82
2023/05/29 01:07:12;;;;;;;16.98;9.93;;;;;;;14.07;100.00;94339.44;5021226;28;20392;-82
2023/05/29 01:09:38;;;;;;;16.58;9.75;;;;;;;14.08;100.00;94341.00;5021856;28;20056;-82
2023/05/29 01:12:08;;;;;;;19.65;10.77;;;;;;;14.06;100.00;94347.63;5037919;28;20103;-81
2023/05/29 01:15:04;;;;;;;20.83;10.10;;;;;;;14.32;100.00;94352.47;5055755;28;20338;-81
2023/05/29 01:18:01;;;;;;;20.50;9.20;;;;;;;14.32;100.00;94349.81;5037836;28;20465;-81
2023/05/29 01:20:54;;;;;;;17.83;9.13;;;;;;;14.31;100.00;94350.91;5055525;28;20029;-82
2023/05/29 01:26:46;;;;;;;17.60;9.70;;;;;;;13.93;100.00;94349.16;5055129;28;20405;-82
2023/05/29 01:32:17;;;;;;;23.70;10.60;;;;;;;14.16;100.00;94344.06;5055521;28;20455;-82
2023/05/29 01:34:42;;;;;;;16.40;9.80;;;;;;;14.17;100.00;94340.34;5037552;28;20036;-82
2023/05/29 01:37:08;;;;;;;18.92;9.98;;;;;;;14.24;100.00;94338.09;5020713;28;20131;-81
2023/05/29 01:39:35;;;;;;;18.67;10.25;;;;;;;14.08;100.00;94330.47;5037382;28;20401;-82
2023/05/29 01:42:00;;;;;;;16.63;9.32;;;;;;;14.13;100.00;94326.97;5037466;28;20369;-81
2023/05/29 01:44:26;;;;;;;20.63;10.77;;;;;;;13.50;100.00;94319.28;5037680;28;20037;-81
2023/05/29 01:47:10;;;;;;;28.40;11.23;;;;;;;13.51;100.00;94326.09;5036855;28;20029;-82
2023/05/29 01:49:37;;;;;;;27.83;10.38;;;;;;;13.38;100.00;94322.31;5054817;28;20035;-82
2023/05/29 01:52:40;;;;;;;19.98;10.43;;;;;;;13.73;100.00;94323.94;5020814;28;20021;-82
2023/05/29 01:55:06;;;;;;;27.23;12.00;;;;;;;13.51;100.00;94320.06;5054992;28;20043;-81
2023/05/29 01:57:32;;;;;;;18.20;11.05;;;;;;;13.51;100.00;94314.81;5036591;28;20029;-81
2023/05/29 01:59:57;;;;;;;21.48;11.45;;;;;;;13.40;100.00;94314.13;5020233;28;20033;-81
2023/05/29 02:02:23;;;;;;;19.70;10.75;;;;;;;13.65;100.00;94314.84;5037030;28;20036;-82
2023/05/29 02:04:48;;;;;;;19.90;11.63;;;;;;;13.47;100.00;94319.84;5020440;28;20454;-82
2023/05/29 02:09:57;;;;;;;25.88;12.13;;;;;;;13.23;100.00;94319.91;5057463;28;20028;-82
2023/05/29 02:12:23;;;;;;;23.30;13.32;;;;;;;13.29;100.00;94327.44;5053305;28;20438;-82
2023/05/29 02:15:07;;;;;;;19.90;11.48;;;;;;;13.30;100.00;94322.97;5047351;28;20036;-82
2023/05/29 02:17:36;;;;;;;19.15;11.75;;;;;;;13.27;100.00;94321.69;5046549;28;20025;-81
2023/05/29 02:20:04;;;;;;;27.10;13.27;;;;;;;13.32;100.00;94318.19;5039257;28;20033;-82
2023/05/29 02:22:29;;;;;;;27.92;13.73;;;;;;;13.35;100.00;94322.91;5040673;28;20365;-82
2023/05/29 02:24:55;;;;;;;31.13;13.48;;;;;;;13.32;100.00;94322.69;5047130;28;20045;-81
2023/05/29 02:27:20;;;;;;;29.80;13.77;;;;;;;13.14;100.00;94325.81;5022650;28;20025;-82
2023/05/29 02:30:05;;;;;;;26.83;14.95;;;;;;;13.13;100.00;94320.84;5039236;28;20167;-82
2023/05/29 02:32:30;;;;;;;24.33;12.27;;;;;;;13.35;100.00;94317.63;5057093;28;20062;-81
2023/05/29 02:35:15;;;;;;;21.02;11.88;;;;;;;13.52;100.00;94311.88;5022983;28;20025;-81
2023/05/29 02:37:43;;;;;;;23.20;12.73;;;;;;;13.20;100.00;94313.38;5038731;28;20024;-82
2023/05/29 02:40:09;;;;;;;23.60;13.15;;;;;;;13.11;100.00;94310.59;5039087;28;20028;-82
2023/05/29 02:42:36;;;;;;;22.75;13.52;;;;;;;12.79;100.00;94301.56;5051076;28;20024;-81
2023/05/29 02:45:01;;;;;;;22.10;12.13;;;;;;;13.00;100.00;94306.53;5058968;28;20422;-82
2023/05/29 02:47:27;;;;;;;23.35;12.95;;;;;;;13.24;100.00;94318.84;5058676;28;20082;-81
2023/05/29 02:49:52;;;;;;;24.67;13.60;;;;;;;12.91;100.00;94305.59;5059088;28;20021;-82
2023/05/29 02:52:17;;;;;;;28.27;14.20;;;;;;;12.90;100.00;94307.47;5059144;28;20025;-81
2023/05/29 02:54:45;;;;;;;26.95;13.93;;;;;;;12.90;100.00;94299.56;5076650;28;20434;-81
2023/05/29 02:57:10;;;;;;;22.55;12.70;;;;;;;13.08;100.00;94305.13;5042297;28;20052;-81
2023/05/29 02:59:36;;;;;;;22.38;12.60;;;;;;;13.22;100.00;94300.72;5057814;28;20123;-81
2023/05/29 03:02:02;;;;;;;25.27;12.73;;;;;;;13.08;100.00;94303.28;5058819;28;20323;-81
2023/05/29 03:04:33;;;;;;;21.80;11.80;;;;;;;13.21;100.00;94295.75;5042079;28;20126;-83
2023/05/29 03:06:58;;;;;;;22.42;12.38;;;;;;;13.15;100.00;94302.94;5041925;28;20059;-82
2023/05/29 03:09:24;;;;;;;25.90;13.38;;;;;;;12.73;100.00;94300.84;5058068;28;20040;-82
2023/05/29 03:12:08;;;;;;;24.10;12.60;;;;;;;13.06;100.00;94302.00;5042224;28;20127;-82
2023/05/29 03:14:35;;;;;;;24.33;11.95;;;;;;;12.89;100.00;94305.88;5058745;28;20029;-82
2023/05/29 03:17:07;;;;;;;22.38;12.88;;;;;;;12.54;100.00;94305.25;5041982;28;20345;-82
2023/05/29 03:19:33;;;;;;;21.77;13.18;;;;;;;12.57;100.00;94304.72;5076413;28;20554;-82
2023/05/29 03:21:58;;;;;;;26.65;15.00;;;;;;;12.43;100.00;94302.75;5058883;28;20032;-82
2023/05/29 03:24:23;;;;;;;23.48;13.50;;;;;;;12.50;100.00;94302.41;5058586;28;20430;-82
2023/05/29 03:26:49;;;;;;;25.23;13.80;;;;;;;12.59;100.00;94299.94;5058362;28;20029;-82
2023/05/29 03:32:18;;;;;;;18.83;11.05;;;;;;;12.97;100.00;94301.84;5076356;28;20032;-82
2023/05/29 03:34:43;;;;;;;18.55;10.90;;;;;;;13.09;100.00;94317.19;5042096;28;20434;-82
2023/05/29 03:37:09;;;;;;;19.27;11.23;;;;;;;13.25;100.00;94317.78;5058298;28;20025;-82
2023/05/29 03:39:34;;;;;;;17.08;10.95;;;;;;;13.19;100.00;94306.53;5041869;28;20025;-82
2023/05/29 03:42:00;;;;;;;16.80;10.38;;;;;;;13.16;100.00;94307.13;5058301;28;20369;-82
2023/05/29 03:44:25;;;;;;;20.45;10.20;;;;;;;12.90;100.00;94306.66;5058346;28;20433;-82
2023/05/29 03:46:51;;;;;;;19.02;9.63;;;;;;;13.09;100.00;94307.47;5058164;28;20127;-82
2023/05/29 03:49:16;;;;;;;14.43;9.07;;;;;;;13.25;100.00;94308.03;5041912;28;20369;-82
2023/05/29 03:51:42;;;;;;;17.63;9.10;;;;;;;13.25;100.00;94312.53;5075937;28;20024;-82
2023/05/29 03:54:07;;;;;;;14.80;9.20;;;;;;;13.36;100.00;94303.41;5041676;28;20343;-82
2023/05/29 03:59:54;;;;;;;19.58;9.52;;;;;;;13.32;100.00;94322.69;5075986;28;20040;-82
2023/05/29 04:02:19;;;;;;;18.50;10.10;;;;;;;13.32;100.00;94323.44;5058408;28;20051;-82
2023/05/29 04:04:45;;;;;;;18.48;10.13;;;;;;;13.33;100.00;94322.38;5041675;28;20028;-82
2023/05/29 04:07:11;;;;;;;18.88;9.80;;;;;;;13.42;100.00;94325.94;5075895;28;20063;-82
2023/05/29 04:09:36;;;;;;;20.65;9.27;;;;;;;13.44;100.00;94320.44;5041730;28;20016;-82
2023/05/29 04:14:46;;;;;;;18.63;9.65;;;;;;;13.47;100.00;94322.50;5079625;28;20059;-82
2023/05/29 04:17:11;;;;;;;18.65;9.93;;;;;;;13.60;100.00;94323.59;5079470;28;20032;-82
2023/05/29 04:19:37;;;;;;;14.98;9.38;;;;;;;13.64;100.00;94327.25;5061387;28;20028;-82
2023/05/29 04:22:02;;;;;;;24.98;9.98;;;;;;;13.56;100.00;94325.25;5061500;28;20130;-82
2023/05/29 04:24:28;;;;;;;21.70;9.55;;;;;;;13.48;100.00;94329.31;5061672;28;20072;-82
2023/05/29 04:26:53;;;;;;;16.60;8.98;;;;;;;13.66;100.00;94325.09;5061266;28;20483;-82
2023/05/29 04:32:22;;;;;;;17.20;8.60;;;;;;;13.98;100.00;94339.34;5079386;28;20030;-82
2023/05/29 04:35:11;;;;;;;19.10;8.80;;;;;;;13.66;100.00;94337.47;5047060;28;20527;-82
2023/05/29 04:37:38;;;;;;;17.10;9.60;;;;;;;13.75;100.00;94333.13;5041728;28;20025;-82
2023/05/29 04:40:10;;;;;;;18.00;8.73;;;;;;;14.00;100.00;94345.09;5056482;28;20034;-82
2023/05/29 04:45:39;;;;;;;20.42;9.88;;;;;;;13.93;100.00;94343.91;5063946;28;20115;-81
2023/05/29 04:48:23;;;;;;;26.63;10.93;;;;;;;13.62;100.00;94342.53;5061243;28;20070;-81
2023/05/29 04:50:48;;;;;;;18.90;9.60;;;;;;;13.90;100.00;94341.84;5078914;28;20024;-81
2023/05/29 04:53:14;;;;;;;16.30;9.23;;;;;;;14.14;100.00;94339.06;5061089;28;20036;-81
2023/05/29 04:55:40;;;;;;;20.02;9.15;;;;;;;14.03;100.00;94343.75;5060873;28;20081;-81
2023/05/29 04:58:06;;;;;;;13.60;8.80;;;;;;;14.14;100.00;94346.97;5060952;28;20028;-86
2023/05/29 05:00:31;;;;;;;13.40;8.38;;;;;;;14.26;100.00;94344.66;5042773;28;20032;-81
2023/05/29 05:02:57;;;;;;;14.05;8.15;;;;;;;14.48;100.00;94345.06;5051649;28;20025;-81
2023/05/29 05:05:22;;;;;;;17.20;9.43;;;;;;;14.41;100.00;94348.09;5026474;28;20029;-82
2023/05/29 05:07:47;;;;;;;16.08;9.15;;;;;;;14.24;100.00;94346.81;5060664;28;20052;-81
2023/05/29 05:10:13;;;;;;;20.52;9.20;;;;;;;14.20;100.00;94351.09;5061075;28;20038;-81
2023/05/29 05:12:57;;;;;;;24.17;9.82;;;;;;;14.23;100.00;94353.16;5060780;28;20029;-81
2023/05/29 05:15:26;;;;;;;16.95;8.57;;;;;;;14.60;100.00;94347.22;5078335;28;20083;-80
2023/05/29 05:17:51;;;;;;;15.48;9.13;;;;;;;14.76;100.00;94350.38;5044560;28;20433;-80
2023/05/29 05:20:17;;;;;;;15.65;9.00;;;;;;;15.07;100.00;94353.19;5044001;28;20036;-81
2023/05/29 05:22:42;;;;;;;17.77;9.40;;;;;;;15.30;100.00;94352.47;5059447;28;20338;-80
2023/05/29 05:25:08;;;;;;;13.52;8.55;;;;;;;15.58;100.00;94358.44;5060377;28;20031;-81
2023/05/29 05:27:33;;;;;;;12.45;7.72;;;;;;;15.61;100.00;94352.53;5060303;28;20078;-81
2023/05/29 05:29:58;;;;;;;15.68;8.13;;;;;;;15.51;100.00;94350.91;5078102;28;20070;-80
2023/05/29 05:35:11;;;;;;;15.98;8.90;;;;;;;15.47;100.00;94362.38;5078117;28;20094;-80
2023/05/29 05:37:57;;;;;;;13.20;8.13;;;;;;;15.25;100.00;94366.53;5077755;28;20017;-80
2023/05/29 05:40:23;;;;;;;17.27;8.40;;;;;;;15.02;100.00;94374.38;5077620;28;20021;-80
2023/05/29 05:42:49;;;;;;;16.63;8.60;;;;;;;15.54;100.00;94370.69;5060170;28;20094;-80
2023/05/29 05:45:14;;;;;;;13.70;8.65;;;;;;;15.87;100.00;94372.31;5060038;28;20072;-80
2023/05/29 05:47:40;;;;;;;13.10;8.43;;;;;;;16.25;100.00;94377.25;5059742;28;20445;-80
2023/05/29 05:50:06;;;;;;;13.35;8.05;;;;;;;16.68;100.00;94378.53;5059876;28;20028;-80
2023/05/29 05:52:32;;;;;;;18.98;8.52;;;;;;;16.77;100.00;94378.56;5043434;28;20452;-80
2023/05/29 05:58:21;;;;;;;16.73;9.32;;;;;;;16.84;100.00;94370.94;5077585;28;20035;-80
2023/05/29 06:00:46;;;;;;;15.07;8.55;;;;;;;16.72;100.00;94378.72;5043110;28;20341;-80
2023/05/29 06:03:11;;;;;;;15.35;8.32;;;;;;;17.22;100.00;94383.69;5042889;28;20040;-80
2023/05/29 06:05:41;;;;;;;12.75;8.07;;;;;;;17.10;100.00;94384.31;5059612;28;20346;-80
2023/05/29 06:08:08;;;;;;;16.35;9.35;;;;;;;18.12;100.00;94386.09;5051736;28;20044;-80
2023/05/29 06:10:33;;;;;;;18.58;9.55;;;;;;;18.63;100.00;94396.09;5057411;28;20055;-81
2023/05/29 06:12:59;;;;;;;14.60;8.80;;;;;;;18.96;100.00;94387.53;5039478;28;20407;-81
2023/05/29 06:15:24;;;;;;;13.93;9.23;;;;;;;19.17;100.00;94394.78;5039757;28;20028;-81
2023/05/29 06:17:51;;;;;;;16.55;7.53;;;;;;;18.44;100.00;94391.19;5059363;28;20341;-81
2023/05/29 06:20:17;;;;;;;12.80;8.07;;;;;;;18.76;100.00;94389.78;5059572;28;20029;-81
2023/05/29 06:22:42;;;;;;;16.20;8.90;;;;;;;18.92;100.00;94384.75;5059458;28;20100;-81
2023/05/29 06:25:09;;;;;;;18.52;9.68;;;;;;;18.49;100.00;94389.09;5077426;28;20024;-81
2023/05/29 06:27:53;;;;;;;18.25;9.30;;;;;;;18.95;100.00;94378.03;5059125;28;20038;-81
2023/05/29 06:30:19;;;;;;;18.83;10.27;;;;;;;18.60;100.00;94380.81;5059662;28;20028;-81
2023/05/29 06:32:44;;;;;;;22.20;12.05;;;;;;;18.71;100.00;94378.56;5077505;28;20319;-81
2023/05/29 06:38:13;;;;;;;19.88;11.93;;;;;;;18.50;100.00;94385.34;5061818;28;20121;-81
2023/05/29 06:40:38;;;;;;;19.48;11.75;;;;;;;18.64;100.00;94389.69;5058916;28;20442;-81
2023/05/29 06:43:04;;;;;;;19.00;11.52;;;;;;;18.40;100.00;94377.75;5058958;28;20035;-81
2023/05/29 06:45:48;;;;;;;17.70;10.35;;;;;;;18.46;100.00;94384.44;5042214;28;20031;-81
2023/05/29 06:48:13;;;;;;;18.90;9.65;;;;;;;18.60;100.00;94378.94;5076827;28;20035;-80
2023/05/29 06:50:58;;;;;;;17.80;10.65;;;;;;;18.57;100.00;94381.44;5059228;28;20020;-81
2023/05/29 06:53:23;;;;;;;15.68;8.93;;;;;;;18.92;100.00;94375.97;5059350;28;20056;-81
2023/05/29 06:55:48;;;;;;;16.35;8.82;;;;;;;18.93;100.00;94386.28;5042249;28;20097;-81
2023/05/29 06:58:33;;;;;;;14.68;9.07;;;;;;;18.96;100.00;94387.53;5076714;28;20039;-81
2023/05/29 07:00:58;;;;;;;16.08;9.27;;;;;;;18.64;100.00;94387.81;5058626;28;20037;-81
2023/05/29 07:03:25;;;;;;;15.20;8.13;;;;;;;19.11;100.00;94390.78;5042299;28;20338;-81
2023/05/29 07:08:35;;;;;;;24.73;12.20;;;;;;;19.29;100.00;94396.75;5061483;28;20036;-81
2023/05/29 07:11:01;;;;;;;20.13;11.93;;;;;;;19.25;100.00;94388.66;5058803;28;20029;-81
2023/05/29 07:13:27;;;;;;;22.17;11.02;;;;;;;18.89;100.00;94388.03;5058986;28;20107;-81
2023/05/29 07:15:52;;;;;;;18.63;10.57;;;;;;;19.15;100.00;94389.81;5076440;28;20073;-81
2023/05/29 07:18:17;;;;;;;18.65;9.88;;;;;;;19.54;100.00;94386.28;5058480;28;20020;-81
2023/05/29 07:23:47;;;;;;;15.55;9.13;;;;;;;19.57;100.00;94396.25;5061328;28;20078;-81
2023/05/29 07:26:12;;;;;;;17.02;9.40;;;;;;;19.73;100.00;94393.81;5058660;28;20319;-80
2023/05/29 07:28:38;;;;;;;15.10;9.88;;;;;;;19.84;100.00;94394.97;5058519;28;20147;-81
2023/05/29 07:31:03;;;;;;;13.63;9.05;;;;;;;19.80;100.00;94398.59;5058808;28;20032;-81
2023/05/29 07:33:29;;;;;;;13.75;8.43;;;;;;;20.05;100.00;94391.53;5058474;28;20028;-81
2023/05/29 07:35:54;;;;;;;15.75;8.02;;;;;;;19.35;100.00;94393.59;5041951;28;20029;-81
2023/05/29 07:43:51;;;;;;;20.70;11.82;;;;;;;19.19;100.00;94392.59;5061100;28;20035;-81
2023/05/29 07:49:01;;;;;;;20.13;9.82;;;;;;;19.34;100.00;94380.63;5064995;28;20078;-81
2023/05/29 07:51:26;;;;;;;14.05;8.80;;;;;;;19.69;100.00;94382.28;5062233;28;20448;-81
2023/05/29 07:53:52;;;;;;;16.00;9.63;;;;;;;19.76;100.00;94383.31;5062175;28;20074;-81
2023/05/29 07:59:01;;;;;;;13.80;8.27;;;;;;;20.51;100.00;94385.44;5079928;28;20039;-81
2023/05/29 08:01:27;;;;;;;13.98;8.00;;;;;;;20.29;100.00;94380.19;5045468;28;20430;-81
2023/05/29 08:03:52;;;;;;;16.02;7.97;;;;;;;20.61;100.00;94390.34;5045592;28;20025;-81
2023/05/29 08:06:18;;;;;;;14.88;8.63;;;;;;;20.75;100.00;94393.47;5061780;28;20089;-81
2023/05/29 08:08:44;;;;;;;20.90;9.38;;;;;;;20.40;100.00;94390.41;5061830;28;20349;-81
2023/05/29 08:11:10;;;;;;;16.02;7.78;;;;;;;20.39;100.00;94394.97;5079723;28;20408;-81
2023/05/29 08:13:36;;;;;;;14.35;8.07;;;;;;;20.82;100.00;94397.50;5061856;28;20032;-81
2023/05/29 08:16:02;;;;;;;13.93;7.68;;;;;;;20.47;100.00;94393.31;5061436;28;20032;-81
2023/05/29 08:21:31;;;;;;;14.43;7.53;;;;;;;20.90;100.00;94399.28;5079610;28;20043;-81
2023/05/29 08:23:57;;;;;;;14.80;7.55;;;;;;;20.22;100.00;94393.25;5061753;28;20392;-81
2023/05/29 08:26:22;;;;;;;16.00;7.88;;;;;;;20.49;100.00;94396.44;5045094;28;20036;-81
2023/05/29 08:28:48;;;;;;;16.23;7.47;;;;;;;20.66;100.00;94398.13;5061504;28;20330;-81
2023/05/29 08:31:13;;;;;;;16.17;7.38;;;;;;;20.19;100.00;94393.91;5061504;28;20071;-81
2023/05/29 08:33:39;;;;;;;13.68;7.05;;;;;;;20.63;100.00;94390.78;5079553;28;20445;-81
2023/05/29 08:36:23;;;;;;;16.77;7.22;;;;;;;20.38;100.00;94401.41;5061429;28;20033;-81
2023/05/29 08:39:08;;;;;;;18.50;9.73;;;;;;;20.33;100.00;94404.25;5079257;28;20082;-81
2023/05/29 08:42:03;;;;;;;15.85;8.60;;;;;;;21.07;100.00;94402.81;5061406;28;20035;-81
2023/05/29 08:44:31;;;;;;;18.20;8.32;;;;;;;21.50;100.00;94404.13;5061200;28;20024;-81
2023/05/29 08:47:06;;;;;;;13.95;7.93;;;;;;;21.75;100.00;94401.44;5061001;28;20025;-81
2023/05/29 08:49:41;;;;;;;19.52;9.20;;;;;;;21.09;100.00;94400.59;5061659;28;20024;-81
2023/05/29 08:52:16;;;;;;;19.10;9.50;;;;;;;20.91;100.00;94403.50;5061268;28;20051;-81
2023/05/29 08:55:00;;;;;;;15.82;8.20;;;;;;;21.13;100.00;94402.28;5044598;28;20032;-81
2023/05/29 08:57:28;;;;;;;17.00;10.18;;;;;;;20.80;100.00;94399.66;5044379;28;20024;-81
2023/05/29 08:59:55;;;;;;;20.05;10.70;;;;;;;20.68;100.00;94405.78;5061001;28;20447;-81
2023/05/29 09:02:20;;;;;;;18.30;10.18;;;;;;;21.19;100.00;94408.94;5060961;28;20107;-81
2023/05/29 09:04:48;;;;;;;13.25;7.78;;;;;;;21.64;100.00;94402.97;5058127;28;20495;-81
2023/05/29 09:07:33;;;;;;;18.73;8.52;;;;;;;21.32;100.00;94409.69;5041268;28;20117;-81
2023/05/29 09:10:00;;;;;;;17.30;8.00;;;;;;;21.19;100.00;94416.16;5041617;28;20081;-81
2023/05/29 09:12:44;;;;;;;16.33;7.78;;;;;;;21.54;100.00;94413.00;5058105;28;20024;-81
2023/05/29 09:15:21;;;;;;;16.38;8.55;;;;;;;21.65;100.00;94412.53;5060684;28;20020;-81
2023/05/29 09:17:54;;;;;;;16.73;7.70;;;;;;;21.67;100.00;94413.78;5044062;28;20445;-81
2023/05/29 09:20:23;;;;;;;16.25;9.45;;;;;;;21.54;100.00;94418.34;5060534;28;20028;-81
2023/05/29 09:23:00;;;;;;;20.90;9.02;;;;;;;20.93;100.00;94414.59;5044483;28;20114;-81
2023/05/29 09:25:27;;;;;;;12.35;7.22;;;;;;;21.81;100.00;94428.63;5060638;28;20073;-81
2023/05/29 09:28:13;;;;;;;12.88;7.57;;;;;;;20.76;100.00;94421.63;5060448;28;20020;-81
2023/05/29 09:30:39;;;;;;;15.90;7.70;;;;;;;21.25;100.00;94422.81;5043428;28;20040;-81
2023/05/29 09:33:09;;;;;;;15.55;8.45;;;;;;;21.21;100.00;94432.56;5078219;28;20087;-81
2023/05/29 09:35:36;;;;;;;16.30;7.78;;;;;;;21.07;100.00;94424.94;5043786;28;20028;-81
2023/05/29 09:38:20;;;;;;;14.73;8.98;;;;;;;20.82;100.00;94422.22;5043721;28;20028;-81
2023/05/29 09:41:05;;;;;;;21.52;9.43;;;;;;;20.70;100.00;94424.84;5043654;28;20070;-81
2023/05/29 09:43:32;;;;;;;16.20;8.30;;;;;;;20.87;100.00;94422.03;5077985;28;20032;-81
2023/05/29 09:46:00;;;;;;;16.17;8.52;;;;;;;21.18;100.00;94419.91;5059967;28;20027;-83
2023/05/29 09:48:26;;;;;;;19.65;8.30;;;;;;;21.39;100.00;94421.69;5055581;28;20425;-81
2023/05/29 09:50:51;;;;;;;14.35;7.60;;;;;;;20.90;100.00;94431.22;5036203;28;20025;-81
2023/05/29 09:53:23;;;;;;;17.30;8.55;;;;;;;21.06;100.00;94431.38;5057586;28;20349;-81
2023/05/29 09:56:08;;;;;;;15.23;9.32;;;;;;;21.22;100.00;94438.69;5044010;28;20024;-81
2023/05/29 09:58:33;;;;;;;20.88;9.93;;;;;;;21.30;99.71;94435.91;5077734;28;20024;-81
2023/05/29 10:00:59;;;;;;;26.95;11.15;;;;;;;21.26;100.00;94431.56;5043228;28;20029;-82
2023/05/29 10:03:24;;;;;;;22.00;9.60;;;;;;;20.93;100.00;94430.56;5043410;28;20020;-81
2023/05/29 10:05:51;;;;;;;19.73;11.60;;;;;;;21.85;100.00;94435.63;5077387;28;20025;-81
2023/05/29 10:08:36;;;;;;;21.80;11.65;;;;;;;21.80;100.00;94432.41;5059319;28;20031;-81
2023/05/29 10:11:03;;;;;;;21.58;11.05;;;;;;;22.28;100.00;94430.69;5077431;28;20049;-81
2023/05/29 10:13:36;;;;;;;16.80;9.80;;;;;;;22.37;100.00;94422.53;5059840;28;20021;-81
2023/05/29 10:16:03;;;;;;;18.83;8.82;;;;;;;22.57;94.53;94422.69;5043078;28;20453;-81
2023/05/29 10:18:39;;;;;;;18.23;9.70;;;;;;;22.37;94.44;94424.44;5057469;28;20033;-81
2023/05/29 10:21:07;;;;;;;22.60;10.88;;;;;;;22.39;97.13;94427.53;5056068;28;20075;-81
2023/05/29 10:23:33;;;;;;;19.95;10.55;;;;;;;22.00;84.99;94430.69;5055784;28;20442;-81
2023/05/29 10:26:15;;;;;;;21.33;8.77;;;;;;;22.64;86.71;94425.53;5039191;28;20136;-81
2023/05/29 10:28:46;;;;;;;18.55;9.07;;;;;;;22.38;92.51;94424.09;5023085;28;20033;-81
2023/05/29 10:31:18;;;;;;;15.43;9.13;;;;;;;22.78;79.99;94427.78;5039406;28;20048;-81
2023/05/29 10:34:01;;;;;;;15.00;8.50;;;;;;;22.66;87.86;94427.88;5055895;28;20100;-81
2023/05/29 10:36:32;;;;;;;15.57;7.97;;;;;;;22.43;89.07;94423.06;5056978;28;20434;-81
2023/05/29 10:38:58;;;;;;;17.42;8.88;;;;;;;23.00;83.08;94434.44;5022895;28;20029;-81
2023/05/29 10:41:26;;;;;;;16.67;9.52;;;;;;;22.68;82.56;94426.41;5039109;28;20035;-81
2023/05/29 10:44:34;;;;;;;17.95;10.10;;;;;;;22.46;85.11;94430.41;5039303;28;20115;-81
2023/05/29 10:46:59;;;;;;;21.00;12.23;;;;;;;21.32;91.11;94439.00;5039003;28;20469;-82
2023/05/29 10:52:10;;;;;;;17.63;10.60;;;;;;;22.52;82.21;94422.94;5041755;28;20067;-81
2023/05/29 10:54:53;;;;;;;23.40;10.90;;;;;;;21.96;89.96;94421.84;5039041;28;20381;-82
2023/05/29 10:57:20;;;;;;;25.83;12.25;;;;;;;22.27;87.38;94423.03;5039096;28;20360;-81
2023/05/29 10:59:46;;;;;;;21.60;10.70;;;;;;;22.96;100.00;94422.09;5038726;28;20029;-81
2023/05/29 11:05:07;;;;;;;21.48;12.52;;;;;;;22.92;85.57;94429.25;5041567;28;20040;-81
2023/05/29 11:07:38;;;;;;;19.90;11.13;;;;;;;23.57;88.35;94433.44;5038856;28;20053;-82
2023/05/29 11:10:13;;;;;;;19.15;10.77;;;;;;;23.35;79.72;94435.63;5038680;28;20514;-81
2023/05/29 11:15:42;;;;;;;22.35;13.05;;;;;;;22.20;80.18;94418.28;5055387;28;20059;-82
2023/05/29 11:18:08;;;;;;;19.42;11.27;;;;;;;22.44;82.70;94430.72;5038616;28;20021;-81
2023/05/29 11:23:45;;;;;;;15.65;9.35;;;;;;;23.00;68.28;94421.06;5060701;28;20119;-82
2023/05/29 11:26:11;;;;;;;18.80;8.95;;;;;;;23.33;67.46;94421.84;5042631;28;20404;-82
2023/05/29 11:28:37;;;;;;;16.20;7.90;;;;;;;23.65;64.15;94411.06;5042623;28;20098;-82
2023/05/29 11:31:08;;;;;;;13.23;7.63;;;;;;;24.19;66.74;94405.28;5042637;28;20024;-82
2023/05/29 11:36:22;;;;;;;24.33;13.20;;;;;;;23.15;73.53;94424.84;5045231;28;20036;-81
2023/05/29 11:44:55;;;;;;;15.52;9.10;;;;;;;23.26;66.62;94406.44;5062487;28;20043;-81
2023/05/29 11:47:22;;;;;;;22.17;10.18;;;;;;;23.77;68.37;94415.50;5079745;28;20036;-81
2023/05/29 11:49:48;;;;;;;18.05;8.32;;;;;;;23.19;65.02;94416.16;5063158;28;20036;-81
2023/05/29 11:52:33;;;;;;;16.60;8.60;;;;;;;23.55;69.59;94403.59;5062240;28;20460;-81
2023/05/29 11:55:24;;;;;;;22.65;9.80;;;;;;;23.10;68.13;94408.31;5062152;28;20111;-81
2023/05/29 11:58:08;;;;;;;21.55;11.32;;;;;;;22.90;72.24;94405.56;5080032;28;20028;-81
2023/05/29 12:00:53;;;;;;;17.48;10.88;;;;;;;22.73;73.17;94404.00;5079755;28;20042;-81
2023/05/29 12:03:19;;;;;;;18.95;9.82;;;;;;;23.46;80.02;94403.03;5062188;28;20032;-81
2023/05/29 12:08:30;;;;;;;22.70;9.70;;;;;;;23.39;70.70;94406.31;5064711;28;20038;-82
2023/05/29 12:10:56;;;;;;;16.20;9.50;;;;;;;24.54;68.75;94393.66;5061750;28;20028;-81
2023/05/29 12:13:23;;;;;;;22.90;12.02;;;;;;;23.57;74.77;94402.13;5044939;28;20039;-82
2023/05/29 12:15:50;;;;;;;23.05;12.55;;;;;;;22.99;72.37;94400.03;5043162;28;20449;-82
2023/05/29 12:18:16;;;;;;;22.85;11.18;;;;;;;22.92;88.49;94392.63;5041422;28;20021;-82
2023/05/29 12:20:42;;;;;;;17.50;9.40;;;;;;;22.88;79.14;94394.44;5036783;28;20020;-82
2023/05/29 12:26:10;;;;;;;19.23;8.27;;;;;;;22.81;75.68;94379.03;5078954;28;20082;-81
2023/05/29 12:28:43;;;;;;;13.90;8.00;;;;;;;23.53;69.05;94385.25;5060867;28;20372;-82
2023/05/29 12:31:08;;;;;;;18.52;7.80;;;;;;;23.83;77.63;94368.66;5061099;28;20036;-82
2023/05/29 12:36:40;;;;;;;13.70;7.05;;;;;;;24.61;79.34;94366.25;5078934;28;20035;-82
2023/05/29 12:39:10;;;;;;;20.55;8.30;;;;;;;25.08;63.32;94369.66;5061581;28;20036;-82
2023/05/29 12:41:36;;;;;;;13.40;7.80;;;;;;;25.45;65.81;94370.94;5061477;28;20050;-83
2023/05/29 12:44:04;;;;;;;15.23;7.30;;;;;;;25.01;62.71;94375.69;5061257;28;20378;-82
2023/05/29 12:46:36;;;;;;;13.73;8.00;;;;;;;23.96;62.36;94371.19;5059673;28;20028;-82
2023/05/29 12:49:14;;;;;;;14.68;7.05;;;;;;;24.62;66.62;94367.78;5050006;28;20028;-82
2023/05/29 12:51:44;;;;;;;17.35;6.88;;;;;;;24.11;65.70;94353.50;5058255;28;20319;-82
2023/05/29 12:54:14;;;;;;;15.48;6.35;;;;;;;24.53;59.24;94365.31;5024814;28;20029;-82
2023/05/29 12:57:00;;;;;;;10.90;6.75;;;;;;;24.08;62.15;94367.59;5040738;28;20032;-82
2023/05/29 12:59:26;;;;;;;15.90;6.53;;;;;;;24.46;61.80;94367.88;5040751;28;20338;-81